sensor_id;sensor_type;location;lat;lon;timestamp;P1;durP1;ratioP1;P2;durP2;ratioP2
68608;SDS011;55581;46.718;7.690;2024-02-28T00:00:04;23.57;;;12.83;;
68608;SDS011;55581;46.718;7.690;2024-02-28T00:02:31;23.70;;;13.68;;
68608;SDS011;55581;46.718;7.690;2024-02-28T00:04:56;26.27;;;13.20;;
68608;SDS011;55581;46.718;7.690;2024-02-28T00:07:24;26.10;;;14.23;;
68608;SDS011;55581;46.718;7.690;2024-02-28T00:09:49;24.13;;;14.07;;
68608;SDS011;55581;46.718;7.690;2024-02-28T00:12:17;23.17;;;12.18;;
68608;SDS011;55581;46.718;7.690;2024-02-28T00:14:42;25.97;;;13.63;;
68608;SDS011;55581;46.718;7.690;2024-02-28T00:17:08;24.07;;;13.33;;
68608;SDS011;55581;46.718;7.690;2024-02-28T00:19:33;26.08;;;13.90;;
68608;SDS011;55581;46.718;7.690;2024-02-28T00:21:58;23.27;;;12.77;;
68608;SDS011;55581;46.718;7.690;2024-02-28T00:24:25;25.20;;;13.68;;
68608;SDS011;55581;46.718;7.690;2024-02-28T00:26:50;26.87;;;15.00;;
68608;SDS011;55581;46.718;7.690;2024-02-28T00:29:16;25.87;;;13.23;;
68608;SDS011;55581;46.718;7.690;2024-02-28T00:31:41;25.87;;;15.00;;
68608;SDS011;55581;46.718;7.690;2024-02-28T00:34:09;26.40;;;14.75;;
68608;SDS011;55581;46.718;7.690;2024-02-28T00:36:35;27.45;;;14.95;;
68608;SDS011;55581;46.718;7.690;2024-02-28T00:39:00;27.67;;;14.93;;
68608;SDS011;55581;46.718;7.690;2024-02-28T00:41:26;27.77;;;14.27;;
68608;SDS011;55581;46.718;7.690;2024-02-28T00:43:51;23.55;;;13.20;;
68608;SDS011;55581;46.718;7.690;2024-02-28T00:46:16;25.27;;;13.63;;
68608;SDS011;55581;46.718;7.690;2024-02-28T00:48:46;25.25;;;13.60;;
68608;SDS011;55581;46.718;7.690;2024-02-28T00:51:12;28.97;;;15.10;;
68608;SDS011;55581;46.718;7.690;2024-02-28T00:53:37;26.73;;;13.90;;
68608;SDS011;55581;46.718;7.690;2024-02-28T00:56:03;28.47;;;14.70;;
68608;SDS011;55581;46.718;7.690;2024-02-28T00:58:29;28.15;;;13.75;;
68608;SDS011;55581;46.718;7.690;2024-02-28T01:00:55;23.77;;;13.23;;
68608;SDS011;55581;46.718;7.690;2024-02-28T01:03:20;25.13;;;13.43;;
68608;SDS011;55581;46.718;7.690;2024-02-28T01:05:51;25.80;;;13.90;;
68608;SDS011;55581;46.718;7.690;2024-02-28T01:08:19;24.13;;;13.63;;
68608;SDS011;55581;46.718;7.690;2024-02-28T01:10:45;23.50;;;13.57;;
68608;SDS011;55581;46.718;7.690;2024-02-28T01:13:11;25.98;;;13.90;;
68608;SDS011;55581;46.718;7.690;2024-02-28T01:15:36;23.17;;;13.13;;
68608;SDS011;55581;46.718;7.690;2024-02-28T01:18:02;27.23;;;13.38;;
68608;SDS011;55581;46.718;7.690;2024-02-28T01:20:27;25.97;;;13.67;;
68608;SDS011;55581;46.718;7.690;2024-02-28T01:22:52;24.53;;;12.97;;
68608;SDS011;55581;46.718;7.690;2024-02-28T01:25:18;27.27;;;14.80;;
68608;SDS011;55581;46.718;7.690;2024-02-28T01:27:43;25.35;;;14.23;;
68608;SDS011;55581;46.718;7.690;2024-02-28T01:30:11;24.57;;;13.60;;
68608;SDS011;55581;46.718;7.690;2024-02-28T01:32:37;25.85;;;14.38;;
68608;SDS011;55581;46.718;7.690;2024-02-28T01:35:03;25.52;;;13.43;;
68608;SDS011;55581;46.718;7.690;2024-02-28T01:37:28;26.67;;;13.50;;
68608;SDS011;55581;46.718;7.690;2024-02-28T01:39:54;30.55;;;14.93;;
68608;SDS011;55581;46.718;7.690;2024-02-28T01:42:20;27.70;;;13.80;;
68608;SDS011;55581;46.718;7.690;2024-02-28T01:44:46;28.70;;;15.07;;
68608;SDS011;55581;46.718;7.690;2024-02-28T01:47:13;25.52;;;13.63;;
68608;SDS011;55581;46.718;7.690;2024-02-28T01:49:39;28.48;;;14.18;;
68608;SDS011;55581;46.718;7.690;2024-02-28T01:52:08;24.33;;;14.23;;
68608;SDS011;55581;46.718;7.690;2024-02-28T01:54:35;28.33;;;14.50;;
68608;SDS011;55581;46.718;7.690;2024-02-28T01:57:00;27.50;;;14.50;;
68608;SDS011;55581;46.718;7.690;2024-02-28T01:59:28;28.47;;;14.03;;
68608;SDS011;55581;46.718;7.690;2024-02-28T02:01:55;28.42;;;14.73;;
68608;SDS011;55581;46.718;7.690;2024-02-28T02:04:20;26.33;;;13.55;;
68608;SDS011;55581;46.718;7.690;2024-02-28T02:06:46;28.00;;;14.47;;
68608;SDS011;55581;46.718;7.690;2024-02-28T02:09:15;25.30;;;14.00;;
68608;SDS011;55581;46.718;7.690;2024-02-28T02:11:41;28.40;;;15.95;;
68608;SDS011;55581;46.718;7.690;2024-02-28T02:14:07;27.73;;;14.77;;
68608;SDS011;55581;46.718;7.690;2024-02-28T02:16:32;28.70;;;14.77;;
68608;SDS011;55581;46.718;7.690;2024-02-28T02:18:58;25.77;;;13.30;;
68608;SDS011;55581;46.718;7.690;2024-02-28T02:21:23;28.63;;;15.13;;
68608;SDS011;55581;46.718;7.690;2024-02-28T02:23:51;25.63;;;14.40;;
68608;SDS011;55581;46.718;7.690;2024-02-28T02:26:17;29.33;;;13.87;;
68608;SDS011;55581;46.718;7.690;2024-02-28T02:28:42;28.00;;;15.00;;
68608;SDS011;55581;46.718;7.690;2024-02-28T02:31:08;25.77;;;13.70;;
68608;SDS011;55581;46.718;7.690;2024-02-28T02:33:33;29.38;;;15.30;;
68608;SDS011;55581;46.718;7.690;2024-02-28T02:35:58;26.50;;;14.43;;
68608;SDS011;55581;46.718;7.690;2024-02-28T02:38:24;28.13;;;13.87;;
68608;SDS011;55581;46.718;7.690;2024-02-28T02:40:50;26.77;;;14.47;;
68608;SDS011;55581;46.718;7.690;2024-02-28T02:43:16;28.03;;;14.63;;
68608;SDS011;55581;46.718;7.690;2024-02-28T02:45:42;28.77;;;14.82;;
68608;SDS011;55581;46.718;7.690;2024-02-28T02:48:11;24.67;;;13.32;;
68608;SDS011;55581;46.718;7.690;2024-02-28T02:50:38;27.17;;;13.85;;
68608;SDS011;55581;46.718;7.690;2024-02-28T02:53:09;28.35;;;14.73;;
68608;SDS011;55581;46.718;7.690;2024-02-28T02:55:37;25.47;;;13.90;;
68608;SDS011;55581;46.718;7.690;2024-02-28T02:58:02;27.13;;;14.02;;
68608;SDS011;55581;46.718;7.690;2024-02-28T03:00:28;24.50;;;12.93;;
68608;SDS011;55581;46.718;7.690;2024-02-28T03:02:54;27.23;;;13.90;;
68608;SDS011;55581;46.718;7.690;2024-02-28T03:05:19;24.47;;;13.47;;
68608;SDS011;55581;46.718;7.690;2024-02-28T03:07:47;26.77;;;14.18;;
68608;SDS011;55581;46.718;7.690;2024-02-28T03:10:12;28.83;;;14.17;;
68608;SDS011;55581;46.718;7.690;2024-02-28T03:12:38;25.30;;;13.97;;
68608;SDS011;55581;46.718;7.690;2024-02-28T03:15:03;23.90;;;13.30;;
68608;SDS011;55581;46.718;7.690;2024-02-28T03:17:29;26.23;;;13.80;;
68608;SDS011;55581;46.718;7.690;2024-02-28T03:19:57;27.05;;;13.68;;
68608;SDS011;55581;46.718;7.690;2024-02-28T03:22:22;25.07;;;13.83;;
68608;SDS011;55581;46.718;7.690;2024-02-28T03:24:47;26.73;;;13.33;;
68608;SDS011;55581;46.718;7.690;2024-02-28T03:27:13;28.42;;;13.80;;
68608;SDS011;55581;46.718;7.690;2024-02-28T03:29:39;27.47;;;14.73;;
68608;SDS011;55581;46.718;7.690;2024-02-28T03:32:10;28.42;;;14.98;;
68608;SDS011;55581;46.718;7.690;2024-02-28T03:34:36;28.40;;;14.25;;
68608;SDS011;55581;46.718;7.690;2024-02-28T03:37:01;27.33;;;14.10;;
68608;SDS011;55581;46.718;7.690;2024-02-28T03:39:27;24.27;;;13.60;;
68608;SDS011;55581;46.718;7.690;2024-02-28T03:41:53;24.85;;;13.57;;
68608;SDS011;55581;46.718;7.690;2024-02-28T03:44:21;24.52;;;12.95;;
68608;SDS011;55581;46.718;7.690;2024-02-28T03:46:47;25.23;;;13.87;;
68608;SDS011;55581;46.718;7.690;2024-02-28T03:49:12;23.83;;;13.47;;
68608;SDS011;55581;46.718;7.690;2024-02-28T03:51:40;25.40;;;12.93;;
68608;SDS011;55581;46.718;7.690;2024-02-28T03:54:06;27.00;;;14.20;;
68608;SDS011;55581;46.718;7.690;2024-02-28T03:56:32;24.53;;;12.73;;
68608;SDS011;55581;46.718;7.690;2024-02-28T03:59:00;26.35;;;13.38;;
68608;SDS011;55581;46.718;7.690;2024-02-28T04:01:25;23.45;;;13.43;;
68608;SDS011;55581;46.718;7.690;2024-02-28T04:03:51;24.17;;;12.80;;
68608;SDS011;55581;46.718;7.690;2024-02-28T04:06:16;30.17;;;13.97;;
68608;SDS011;55581;46.718;7.690;2024-02-28T04:08:42;26.30;;;14.23;;
68608;SDS011;55581;46.718;7.690;2024-02-28T04:11:07;29.20;;;14.23;;
68608;SDS011;55581;46.718;7.690;2024-02-28T04:13:33;28.17;;;13.00;;
68608;SDS011;55581;46.718;7.690;2024-02-28T04:15:58;26.87;;;14.17;;
68608;SDS011;55581;46.718;7.690;2024-02-28T04:18:24;28.85;;;14.55;;
68608;SDS011;55581;46.718;7.690;2024-02-28T04:20:49;28.90;;;13.77;;
68608;SDS011;55581;46.718;7.690;2024-02-28T04:23:17;27.30;;;13.93;;
68608;SDS011;55581;46.718;7.690;2024-02-28T04:25:42;28.60;;;14.43;;
68608;SDS011;55581;46.718;7.690;2024-02-28T04:28:10;28.52;;;13.63;;
68608;SDS011;55581;46.718;7.690;2024-02-28T04:30:38;28.10;;;14.25;;
68608;SDS011;55581;46.718;7.690;2024-02-28T04:33:03;24.43;;;13.20;;
68608;SDS011;55581;46.718;7.690;2024-02-28T04:35:29;26.80;;;14.03;;
68608;SDS011;55581;46.718;7.690;2024-02-28T04:37:54;28.33;;;13.63;;
68608;SDS011;55581;46.718;7.690;2024-02-28T04:40:19;29.40;;;14.80;;
68608;SDS011;55581;46.718;7.690;2024-02-28T04:42:45;26.27;;;13.93;;
68608;SDS011;55581;46.718;7.690;2024-02-28T04:45:12;27.40;;;14.10;;
68608;SDS011;55581;46.718;7.690;2024-02-28T04:47:38;28.17;;;14.23;;
68608;SDS011;55581;46.718;7.690;2024-02-28T04:50:04;24.83;;;12.93;;
68608;SDS011;55581;46.718;7.690;2024-02-28T04:52:31;28.58;;;13.48;;
68608;SDS011;55581;46.718;7.690;2024-02-28T04:54:56;26.02;;;13.38;;
68608;SDS011;55581;46.718;7.690;2024-02-28T04:57:26;29.05;;;15.13;;
68608;SDS011;55581;46.718;7.690;2024-02-28T04:59:52;26.37;;;12.90;;
68608;SDS011;55581;46.718;7.690;2024-02-28T05:02:18;28.17;;;15.32;;
68608;SDS011;55581;46.718;7.690;2024-02-28T05:04:43;28.10;;;12.60;;
68608;SDS011;55581;46.718;7.690;2024-02-28T05:07:11;26.35;;;14.13;;
68608;SDS011;55581;46.718;7.690;2024-02-28T05:09:37;29.40;;;14.03;;
68608;SDS011;55581;46.718;7.690;2024-02-28T05:12:02;26.03;;;13.03;;
68608;SDS011;55581;46.718;7.690;2024-02-28T05:14:28;24.65;;;12.52;;
68608;SDS011;55581;46.718;7.690;2024-02-28T05:16:53;24.13;;;12.77;;
68608;SDS011;55581;46.718;7.690;2024-02-28T05:19:18;27.07;;;14.17;;
68608;SDS011;55581;46.718;7.690;2024-02-28T05:21:44;28.70;;;14.07;;
68608;SDS011;55581;46.718;7.690;2024-02-28T05:24:15;24.83;;;13.73;;
68608;SDS011;55581;46.718;7.690;2024-02-28T05:26:41;23.90;;;12.60;;
68608;SDS011;55581;46.718;7.690;2024-02-28T05:29:06;27.30;;;13.67;;
68608;SDS011;55581;46.718;7.690;2024-02-28T05:31:33;29.90;;;14.43;;
68608;SDS011;55581;46.718;7.690;2024-02-28T05:33:59;29.05;;;14.45;;
68608;SDS011;55581;46.718;7.690;2024-02-28T05:36:29;29.57;;;13.80;;
68608;SDS011;55581;46.718;7.690;2024-02-28T05:38:55;26.38;;;14.15;;
68608;SDS011;55581;46.718;7.690;2024-02-28T05:41:25;26.88;;;13.55;;
68608;SDS011;55581;46.718;7.690;2024-02-28T05:43:51;27.30;;;14.53;;
68608;SDS011;55581;46.718;7.690;2024-02-28T05:46:17;25.30;;;13.60;;
68608;SDS011;55581;46.718;7.690;2024-02-28T05:48:45;27.70;;;13.75;;
68608;SDS011;55581;46.718;7.690;2024-02-28T05:51:11;29.60;;;15.07;;
68608;SDS011;55581;46.718;7.690;2024-02-28T05:53:38;29.17;;;15.15;;
68608;SDS011;55581;46.718;7.690;2024-02-28T05:56:04;28.23;;;14.23;;
68608;SDS011;55581;46.718;7.690;2024-02-28T05:58:30;31.20;;;15.13;;
68608;SDS011;55581;46.718;7.690;2024-02-28T06:00:56;28.07;;;15.30;;
68608;SDS011;55581;46.718;7.690;2024-02-28T06:03:22;28.98;;;15.23;;
68608;SDS011;55581;46.718;7.690;2024-02-28T06:05:47;27.40;;;13.67;;
68608;SDS011;55581;46.718;7.690;2024-02-28T06:08:13;31.23;;;16.15;;
68608;SDS011;55581;46.718;7.690;2024-02-28T06:10:39;28.37;;;14.57;;
68608;SDS011;55581;46.718;7.690;2024-02-28T06:13:12;29.30;;;15.70;;
68608;SDS011;55581;46.718;7.690;2024-02-28T06:15:37;30.52;;;14.43;;
68608;SDS011;55581;46.718;7.690;2024-02-28T06:18:03;31.23;;;17.13;;
68608;SDS011;55581;46.718;7.690;2024-02-28T06:20:28;30.97;;;14.70;;
68608;SDS011;55581;46.718;7.690;2024-02-28T06:22:56;29.48;;;14.55;;
68608;SDS011;55581;46.718;7.690;2024-02-28T06:25:21;33.33;;;15.33;;
68608;SDS011;55581;46.718;7.690;2024-02-28T06:27:51;32.85;;;16.95;;
68608;SDS011;55581;46.718;7.690;2024-02-28T06:30:16;33.05;;;15.82;;
68608;SDS011;55581;46.718;7.690;2024-02-28T06:32:44;29.48;;;15.30;;
68608;SDS011;55581;46.718;7.690;2024-02-28T06:35:12;30.40;;;14.90;;
68608;SDS011;55581;46.718;7.690;2024-02-28T06:37:37;26.83;;;14.38;;
68608;SDS011;55581;46.718;7.690;2024-02-28T06:40:05;28.17;;;15.00;;
68608;SDS011;55581;46.718;7.690;2024-02-28T06:42:33;30.90;;;16.02;;
68608;SDS011;55581;46.718;7.690;2024-02-28T06:45:01;28.42;;;15.65;;
68608;SDS011;55581;46.718;7.690;2024-02-28T06:47:27;27.08;;;14.18;;
68608;SDS011;55581;46.718;7.690;2024-02-28T06:49:54;31.10;;;16.20;;
68608;SDS011;55581;46.718;7.690;2024-02-28T06:52:20;31.10;;;15.53;;
68608;SDS011;55581;46.718;7.690;2024-02-28T06:54:45;32.30;;;15.80;;
68608;SDS011;55581;46.718;7.690;2024-02-28T06:57:10;30.20;;;15.60;;
68608;SDS011;55581;46.718;7.690;2024-02-28T06:59:36;31.77;;;15.40;;
68608;SDS011;55581;46.718;7.690;2024-02-28T07:02:02;29.03;;;14.97;;
68608;SDS011;55581;46.718;7.690;2024-02-28T07:04:27;38.97;;;17.10;;
68608;SDS011;55581;46.718;7.690;2024-02-28T07:06:52;30.47;;;16.30;;
68608;SDS011;55581;46.718;7.690;2024-02-28T07:09:18;31.73;;;16.35;;
68608;SDS011;55581;46.718;7.690;2024-02-28T07:11:43;30.50;;;15.67;;
68608;SDS011;55581;46.718;7.690;2024-02-28T07:14:09;29.50;;;15.90;;
68608;SDS011;55581;46.718;7.690;2024-02-28T07:16:39;30.80;;;16.52;;
68608;SDS011;55581;46.718;7.690;2024-02-28T07:19:04;30.85;;;16.38;;
68608;SDS011;55581;46.718;7.690;2024-02-28T07:21:35;32.03;;;16.43;;
68608;SDS011;55581;46.718;7.690;2024-02-28T07:24:03;31.40;;;15.85;;
68608;SDS011;55581;46.718;7.690;2024-02-28T07:26:30;30.65;;;15.45;;
68608;SDS011;55581;46.718;7.690;2024-02-28T07:28:56;31.17;;;17.00;;
68608;SDS011;55581;46.718;7.690;2024-02-28T07:31:21;28.10;;;15.03;;
68608;SDS011;55581;46.718;7.690;2024-02-28T07:33:47;110.43;;;57.88;;
68608;SDS011;55581;46.718;7.690;2024-02-28T07:36:12;59.40;;;32.10;;
68608;SDS011;55581;46.718;7.690;2024-02-28T07:38:38;45.30;;;25.57;;
68608;SDS011;55581;46.718;7.690;2024-02-28T07:41:05;33.42;;;18.08;;
68608;SDS011;55581;46.718;7.690;2024-02-28T07:43:31;31.63;;;16.27;;
68608;SDS011;55581;46.718;7.690;2024-02-28T07:46:01;30.73;;;15.27;;
68608;SDS011;55581;46.718;7.690;2024-02-28T07:48:27;33.58;;;16.95;;
68608;SDS011;55581;46.718;7.690;2024-02-28T07:50:52;29.57;;;15.23;;
68608;SDS011;55581;46.718;7.690;2024-02-28T07:53:18;30.47;;;15.80;;
68608;SDS011;55581;46.718;7.690;2024-02-28T07:55:43;33.35;;;17.00;;
68608;SDS011;55581;46.718;7.690;2024-02-28T07:58:10;31.73;;;16.30;;
68608;SDS011;55581;46.718;7.690;2024-02-28T08:00:35;33.05;;;18.15;;
68608;SDS011;55581;46.718;7.690;2024-02-28T08:03:01;36.97;;;17.87;;
68608;SDS011;55581;46.718;7.690;2024-02-28T08:05:26;36.37;;;18.50;;
68608;SDS011;55581;46.718;7.690;2024-02-28T08:07:52;35.45;;;17.92;;
68608;SDS011;55581;46.718;7.690;2024-02-28T08:10:17;37.80;;;19.50;;
68608;SDS011;55581;46.718;7.690;2024-02-28T08:12:43;34.77;;;18.37;;
68608;SDS011;55581;46.718;7.690;2024-02-28T08:15:08;32.78;;;17.45;;
68608;SDS011;55581;46.718;7.690;2024-02-28T08:17:34;33.63;;;17.83;;
68608;SDS011;55581;46.718;7.690;2024-02-28T08:20:00;34.70;;;17.40;;
68608;SDS011;55581;46.718;7.690;2024-02-28T08:22:25;34.33;;;17.13;;
68608;SDS011;55581;46.718;7.690;2024-02-28T08:24:51;36.17;;;16.92;;
68608;SDS011;55581;46.718;7.690;2024-02-28T08:27:19;35.37;;;17.77;;
68608;SDS011;55581;46.718;7.690;2024-02-28T08:29:45;32.22;;;18.20;;
68608;SDS011;55581;46.718;7.690;2024-02-28T08:32:12;35.42;;;18.25;;
68608;SDS011;55581;46.718;7.690;2024-02-28T08:34:38;33.70;;;17.98;;
68608;SDS011;55581;46.718;7.690;2024-02-28T08:37:03;38.00;;;19.07;;
68608;SDS011;55581;46.718;7.690;2024-02-28T08:39:32;35.70;;;18.42;;
68608;SDS011;55581;46.718;7.690;2024-02-28T08:41:57;33.63;;;17.67;;
68608;SDS011;55581;46.718;7.690;2024-02-28T08:44:23;31.23;;;17.70;;
68608;SDS011;55581;46.718;7.690;2024-02-28T08:46:48;30.87;;;16.50;;
68608;SDS011;55581;46.718;7.690;2024-02-28T08:49:14;33.03;;;17.73;;
68608;SDS011;55581;46.718;7.690;2024-02-28T08:51:39;31.63;;;17.63;;
68608;SDS011;55581;46.718;7.690;2024-02-28T08:54:05;33.85;;;18.05;;
68608;SDS011;55581;46.718;7.690;2024-02-28T08:56:31;39.00;;;18.80;;
68608;SDS011;55581;46.718;7.690;2024-02-28T08:58:56;35.47;;;18.80;;
68608;SDS011;55581;46.718;7.690;2024-02-28T09:01:21;36.53;;;18.33;;
68608;SDS011;55581;46.718;7.690;2024-02-28T09:03:49;34.95;;;17.77;;
68608;SDS011;55581;46.718;7.690;2024-02-28T09:06:15;30.40;;;17.20;;
68608;SDS011;55581;46.718;7.690;2024-02-28T09:08:40;33.37;;;16.67;;
68608;SDS011;55581;46.718;7.690;2024-02-28T09:11:05;34.90;;;18.27;;
68608;SDS011;55581;46.718;7.690;2024-02-28T09:13:31;35.53;;;19.45;;
68608;SDS011;55581;46.718;7.690;2024-02-28T09:15:57;36.93;;;17.77;;
68608;SDS011;55581;46.718;7.690;2024-02-28T09:18:23;34.23;;;16.47;;
68608;SDS011;55581;46.718;7.690;2024-02-28T09:20:48;35.60;;;17.70;;
68608;SDS011;55581;46.718;7.690;2024-02-28T09:23:14;33.93;;;16.70;;
68608;SDS011;55581;46.718;7.690;2024-02-28T09:25:41;32.72;;;16.38;;
68608;SDS011;55581;46.718;7.690;2024-02-28T09:28:07;34.93;;;17.10;;
68608;SDS011;55581;46.718;7.690;2024-02-28T09:30:33;32.70;;;16.20;;
68608;SDS011;55581;46.718;7.690;2024-02-28T09:33:03;31.27;;;14.60;;
68608;SDS011;55581;46.718;7.690;2024-02-28T09:35:29;35.08;;;16.90;;
68608;SDS011;55581;46.718;7.690;2024-02-28T09:37:54;34.20;;;16.50;;
68608;SDS011;55581;46.718;7.690;2024-02-28T09:40:22;32.65;;;14.52;;
68608;SDS011;55581;46.718;7.690;2024-02-28T09:42:48;31.43;;;14.30;;
68608;SDS011;55581;46.718;7.690;2024-02-28T09:45:19;30.38;;;13.77;;
68608;SDS011;55581;46.718;7.690;2024-02-28T09:47:49;29.48;;;13.30;;
68608;SDS011;55581;46.718;7.690;2024-02-28T09:50:15;26.13;;;12.80;;
68608;SDS011;55581;46.718;7.690;2024-02-28T09:52:40;29.67;;;13.60;;
68608;SDS011;55581;46.718;7.690;2024-02-28T09:55:06;29.30;;;13.07;;
68608;SDS011;55581;46.718;7.690;2024-02-28T09:57:32;27.55;;;12.88;;
68608;SDS011;55581;46.718;7.690;2024-02-28T10:00:00;28.83;;;13.20;;
68608;SDS011;55581;46.718;7.690;2024-02-28T10:02:26;24.60;;;12.30;;
68608;SDS011;55581;46.718;7.690;2024-02-28T10:04:55;29.85;;;14.60;;
68608;SDS011;55581;46.718;7.690;2024-02-28T10:07:22;28.20;;;14.15;;
68608;SDS011;55581;46.718;7.690;2024-02-28T10:09:47;23.97;;;11.83;;
68608;SDS011;55581;46.718;7.690;2024-02-28T10:12:13;25.63;;;12.53;;
68608;SDS011;55581;46.718;7.690;2024-02-28T10:14:39;29.20;;;13.32;;
68608;SDS011;55581;46.718;7.690;2024-02-28T10:17:05;26.42;;;12.85;;
68608;SDS011;55581;46.718;7.690;2024-02-28T10:19:32;25.90;;;12.67;;
68608;SDS011;55581;46.718;7.690;2024-02-28T10:21:58;25.77;;;12.85;;
68608;SDS011;55581;46.718;7.690;2024-02-28T10:24:24;29.43;;;12.67;;
68608;SDS011;55581;46.718;7.690;2024-02-28T10:26:50;25.60;;;13.18;;
68608;SDS011;55581;46.718;7.690;2024-02-28T10:29:24;23.45;;;10.82;;
68608;SDS011;55581;46.718;7.690;2024-02-28T10:31:50;25.73;;;10.80;;
68608;SDS011;55581;46.718;7.690;2024-02-28T10:34:17;23.92;;;10.60;;
68608;SDS011;55581;46.718;7.690;2024-02-28T10:36:44;23.42;;;12.02;;
68608;SDS011;55581;46.718;7.690;2024-02-28T10:39:12;28.02;;;13.98;;
68608;SDS011;55581;46.718;7.690;2024-02-28T10:41:41;26.08;;;12.43;;
68608;SDS011;55581;46.718;7.690;2024-02-28T10:44:08;27.90;;;12.00;;
68608;SDS011;55581;46.718;7.690;2024-02-28T10:46:39;27.08;;;11.95;;
68608;SDS011;55581;46.718;7.690;2024-02-28T10:49:05;25.90;;;10.65;;
68608;SDS011;55581;46.718;7.690;2024-02-28T10:51:36;24.23;;;11.70;;
68608;SDS011;55581;46.718;7.690;2024-02-28T10:54:04;24.67;;;11.17;;
68608;SDS011;55581;46.718;7.690;2024-02-28T10:56:34;21.67;;;10.27;;
68608;SDS011;55581;46.718;7.690;2024-02-28T10:59:00;22.48;;;10.07;;
68608;SDS011;55581;46.718;7.690;2024-02-28T11:01:26;25.53;;;10.97;;
68608;SDS011;55581;46.718;7.690;2024-02-28T11:03:52;22.88;;;10.27;;
68608;SDS011;55581;46.718;7.690;2024-02-28T11:06:19;22.15;;;10.77;;
68608;SDS011;55581;46.718;7.690;2024-02-28T11:08:49;21.30;;;10.32;;
68608;SDS011;55581;46.718;7.690;2024-02-28T11:11:20;21.40;;;10.23;;
68608;SDS011;55581;46.718;7.690;2024-02-28T11:13:52;20.17;;;10.63;;
68608;SDS011;55581;46.718;7.690;2024-02-28T11:16:25;21.25;;;10.13;;
68608;SDS011;55581;46.718;7.690;2024-02-28T11:18:57;22.13;;;9.80;;
68608;SDS011;55581;46.718;7.690;2024-02-28T11:21:24;21.27;;;10.63;;
68608;SDS011;55581;46.718;7.690;2024-02-28T11:23:51;20.77;;;10.50;;
68608;SDS011;55581;46.718;7.690;2024-02-28T11:26:19;19.57;;;9.43;;
68608;SDS011;55581;46.718;7.690;2024-02-28T11:28:45;22.25;;;10.60;;
68608;SDS011;55581;46.718;7.690;2024-02-28T11:31:11;23.77;;;10.83;;
68608;SDS011;55581;46.718;7.690;2024-02-28T11:33:36;28.10;;;12.67;;
68608;SDS011;55581;46.718;7.690;2024-02-28T11:36:03;31.70;;;12.18;;
68608;SDS011;55581;46.718;7.690;2024-02-28T11:38:29;21.30;;;10.17;;
68608;SDS011;55581;46.718;7.690;2024-02-28T11:40:54;23.97;;;9.77;;
68608;SDS011;55581;46.718;7.690;2024-02-28T11:43:22;17.23;;;9.23;;
68608;SDS011;55581;46.718;7.690;2024-02-28T11:45:48;16.38;;;8.48;;
68608;SDS011;55581;46.718;7.690;2024-02-28T11:48:16;20.08;;;9.57;;
68608;SDS011;55581;46.718;7.690;2024-02-28T11:50:42;20.10;;;10.30;;
68608;SDS011;55581;46.718;7.690;2024-02-28T11:53:10;18.35;;;9.15;;
68608;SDS011;55581;46.718;7.690;2024-02-28T11:55:35;19.00;;;9.40;;
68608;SDS011;55581;46.718;7.690;2024-02-28T11:58:03;20.97;;;10.17;;
68608;SDS011;55581;46.718;7.690;2024-02-28T12:00:33;19.35;;;10.05;;
68608;SDS011;55581;46.718;7.690;2024-02-28T12:03:05;19.83;;;9.50;;
68608;SDS011;55581;46.718;7.690;2024-02-28T12:05:33;18.35;;;8.65;;
68608;SDS011;55581;46.718;7.690;2024-02-28T12:08:02;16.88;;;9.18;;
68608;SDS011;55581;46.718;7.690;2024-02-28T12:10:29;17.67;;;8.73;;
68608;SDS011;55581;46.718;7.690;2024-02-28T12:12:58;23.43;;;9.60;;
68608;SDS011;55581;46.718;7.690;2024-02-28T12:15:27;17.92;;;8.82;;
68608;SDS011;55581;46.718;7.690;2024-02-28T12:17:54;18.35;;;8.75;;
68608;SDS011;55581;46.718;7.690;2024-02-28T12:20:19;17.83;;;8.57;;
68608;SDS011;55581;46.718;7.690;2024-02-28T12:22:45;17.90;;;8.40;;
68608;SDS011;55581;46.718;7.690;2024-02-28T12:25:10;18.95;;;8.80;;
68608;SDS011;55581;46.718;7.690;2024-02-28T12:27:41;17.90;;;8.70;;
68608;SDS011;55581;46.718;7.690;2024-02-28T12:30:09;19.23;;;8.98;;
68608;SDS011;55581;46.718;7.690;2024-02-28T12:32:36;19.10;;;8.73;;
68608;SDS011;55581;46.718;7.690;2024-02-28T12:35:02;18.47;;;8.70;;
68608;SDS011;55581;46.718;7.690;2024-02-28T12:37:29;17.30;;;9.00;;
68608;SDS011;55581;46.718;7.690;2024-02-28T12:39:54;19.63;;;7.93;;
68608;SDS011;55581;46.718;7.690;2024-02-28T12:42:20;18.97;;;8.77;;
68608;SDS011;55581;46.718;7.690;2024-02-28T12:44:45;19.27;;;8.33;;
68608;SDS011;55581;46.718;7.690;2024-02-28T12:47:11;19.27;;;8.90;;
68608;SDS011;55581;46.718;7.690;2024-02-28T12:49:40;16.98;;;8.95;;
68608;SDS011;55581;46.718;7.690;2024-02-28T12:52:06;18.13;;;9.03;;
68608;SDS011;55581;46.718;7.690;2024-02-28T12:54:34;19.25;;;9.10;;
68608;SDS011;55581;46.718;7.690;2024-02-28T12:56:59;19.13;;;9.63;;
68608;SDS011;55581;46.718;7.690;2024-02-28T12:59:27;17.42;;;8.52;;
68608;SDS011;55581;46.718;7.690;2024-02-28T13:01:53;17.70;;;8.93;;
68608;SDS011;55581;46.718;7.690;2024-02-28T13:04:18;19.57;;;9.43;;
68608;SDS011;55581;46.718;7.690;2024-02-28T13:06:44;24.15;;;11.75;;
68608;SDS011;55581;46.718;7.690;2024-02-28T13:09:09;20.53;;;9.40;;
68608;SDS011;55581;46.718;7.690;2024-02-28T13:11:38;21.27;;;10.18;;
68608;SDS011;55581;46.718;7.690;2024-02-28T13:14:03;32.23;;;16.23;;
68608;SDS011;55581;46.718;7.690;2024-02-28T13:16:29;34.95;;;16.13;;
68608;SDS011;55581;46.718;7.690;2024-02-28T13:18:55;36.03;;;17.57;;
68608;SDS011;55581;46.718;7.690;2024-02-28T13:21:20;62.17;;;32.80;;
68608;SDS011;55581;46.718;7.690;2024-02-28T13:23:46;26.42;;;13.85;;
68608;SDS011;55581;46.718;7.690;2024-02-28T13:26:11;22.03;;;10.33;;
68608;SDS011;55581;46.718;7.690;2024-02-28T13:28:42;22.15;;;10.82;;
68608;SDS011;55581;46.718;7.690;2024-02-28T13:31:13;25.83;;;10.83;;
68608;SDS011;55581;46.718;7.690;2024-02-28T13:33:38;20.90;;;10.98;;
68608;SDS011;55581;46.718;7.690;2024-02-28T13:36:06;20.10;;;10.13;;
68608;SDS011;55581;46.718;7.690;2024-02-28T13:38:32;22.95;;;10.93;;
68608;SDS011;55581;46.718;7.690;2024-02-28T13:40:57;23.67;;;10.57;;
68608;SDS011;55581;46.718;7.690;2024-02-28T13:43:22;23.50;;;11.30;;
68608;SDS011;55581;46.718;7.690;2024-02-28T13:45:49;21.87;;;10.13;;
68608;SDS011;55581;46.718;7.690;2024-02-28T13:50:46;20.38;;;9.40;;
68608;SDS011;55581;46.718;7.690;2024-02-28T13:53:12;21.90;;;11.50;;
68608;SDS011;55581;46.718;7.690;2024-02-28T13:55:40;18.20;;;9.03;;
68608;SDS011;55581;46.718;7.690;2024-02-28T13:58:08;21.15;;;9.80;;
68608;SDS011;55581;46.718;7.690;2024-02-28T14:00:36;19.95;;;9.60;;
68608;SDS011;55581;46.718;7.690;2024-02-28T14:03:04;21.80;;;9.65;;
68608;SDS011;55581;46.718;7.690;2024-02-28T14:05:31;18.08;;;9.65;;
68608;SDS011;55581;46.718;7.690;2024-02-28T14:07:57;20.00;;;9.93;;
68608;SDS011;55581;46.718;7.690;2024-02-28T14:10:25;20.73;;;10.13;;
68608;SDS011;55581;46.718;7.690;2024-02-28T14:12:50;23.27;;;11.60;;
68608;SDS011;55581;46.718;7.690;2024-02-28T14:15:19;59.25;;;28.13;;
68608;SDS011;55581;46.718;7.690;2024-02-28T14:17:45;26.87;;;13.27;;
68608;SDS011;55581;46.718;7.690;2024-02-28T14:20:11;20.25;;;10.13;;